Terminal Aerodrome Forecast
Issued by NWS Twin Cities, MN

Home | Current Version | Previous Version | Text Only | Print | Product List | Glossary Off
Versions: 1 2 3 4 5 6 7 8 9 10 11 12 13 14 15 16 17

000
FTUS43 KMPX 232338
TAFEAU
TAF
KEAU 232338Z 2400/2424 10009KT P6SM VCSH SCT025 OVC035
     FM240500 10007KT P6SM SCT012 OVC025
     FM241000 12008KT P6SM OVC008
     FM241600 12012KT P6SM SCT010 OVC020
     FM242000 13011KT P6SM SCT020 OVC035=

USA.gov is the U.S. government's official web portal to all federal, state and local government web resources and services.